sensor_id;sensor_type;location;lat;lon;timestamp;temperature;humidity
21167;DHT22;10741;52.272;9.580;2022-11-06T00:02:19;8.50;99.90
21167;DHT22;10741;52.272;9.580;2022-11-06T00:04:44;8.50;99.90
21167;DHT22;10741;52.272;9.580;2022-11-06T00:07:10;8.50;99.90
21167;DHT22;10741;52.272;9.580;2022-11-06T00:09:36;8.50;99.90
21167;DHT22;10741;52.272;9.580;2022-11-06T00:12:01;8.50;99.90
21167;DHT22;10741;52.272;9.580;2022-11-06T00:14:27;8.50;99.90
21167;DHT22;10741;52.272;9.580;2022-11-06T00:16:53;8.50;99.90
21167;DHT22;10741;52.272;9.580;2022-11-06T00:19:18;8.60;99.90
21167;DHT22;10741;52.272;9.580;2022-11-06T00:21:44;8.60;99.90
21167;DHT22;10741;52.272;9.580;2022-11-06T00:24:11;8.70;99.90
21167;DHT22;10741;52.272;9.580;2022-11-06T00:26:38;8.60;99.90
21167;DHT22;10741;52.272;9.580;2022-11-06T00:29:05;8.60;99.90
21167;DHT22;10741;52.272;9.580;2022-11-06T00:31:34;8.60;99.90
21167;DHT22;10741;52.272;9.580;2022-11-06T00:34:01;8.60;99.90
21167;DHT22;10741;52.272;9.580;2022-11-06T00:36:28;8.60;99.90
21167;DHT22;10741;52.272;9.580;2022-11-06T00:38:55;8.60;99.90
21167;DHT22;10741;52.272;9.580;2022-11-06T00:41:22;8.50;99.90
21167;DHT22;10741;52.272;9.580;2022-11-06T00:43:54;8.50;99.90
21167;DHT22;10741;52.272;9.580;2022-11-06T00:46:21;8.50;99.90
21167;DHT22;10741;52.272;9.580;2022-11-06T00:48:47;8.50;99.90
21167;DHT22;10741;52.272;9.580;2022-11-06T00:51:20;8.50;99.90
21167;DHT22;10741;52.272;9.580;2022-11-06T00:53:46;8.50;99.90
21167;DHT22;10741;52.272;9.580;2022-11-06T00:56:17;8.50;99.90
21167;DHT22;10741;52.272;9.580;2022-11-06T00:58:43;8.50;99.90
21167;DHT22;10741;52.272;9.580;2022-11-06T01:01:21;8.50;99.90
21167;DHT22;10741;52.272;9.580;2022-11-06T01:03:54;8.50;99.90
21167;DHT22;10741;52.272;9.580;2022-11-06T01:06:22;8.50;99.90
21167;DHT22;10741;52.272;9.580;2022-11-06T01:08:49;8.60;99.90
21167;DHT22;10741;52.272;9.580;2022-11-06T01:11:19;8.60;99.90
21167;DHT22;10741;52.272;9.580;2022-11-06T01:13:47;8.60;99.90
21167;DHT22;10741;52.272;9.580;2022-11-06T01:16:14;8.60;99.90
21167;DHT22;10741;52.272;9.580;2022-11-06T01:18:42;8.60;99.90
21167;DHT22;10741;52.272;9.580;2022-11-06T01:21:12;8.70;99.90
21167;DHT22;10741;52.272;9.580;2022-11-06T01:23:38;8.70;99.90
21167;DHT22;10741;52.272;9.580;2022-11-06T01:26:05;8.90;99.90
21167;DHT22;10741;52.272;9.580;2022-11-06T01:28:33;8.70;99.90
21167;DHT22;10741;52.272;9.580;2022-11-06T01:31:12;8.70;99.90
21167;DHT22;10741;52.272;9.580;2022-11-06T01:33:39;8.60;99.90
21167;DHT22;10741;52.272;9.580;2022-11-06T01:36:07;8.60;99.90
21167;DHT22;10741;52.272;9.580;2022-11-06T01:38:33;8.60;99.90
21167;DHT22;10741;52.272;9.580;2022-11-06T01:40:58;8.60;99.90
21167;DHT22;10741;52.272;9.580;2022-11-06T01:43:46;8.60;99.90
21167;DHT22;10741;52.272;9.580;2022-11-06T01:46:13;8.50;99.90
21167;DHT22;10741;52.272;9.580;2022-11-06T01:48:42;8.50;99.90
21167;DHT22;10741;52.272;9.580;2022-11-06T01:51:08;8.50;99.90
21167;DHT22;10741;52.272;9.580;2022-11-06T01:53:35;8.40;99.90
21167;DHT22;10741;52.272;9.580;2022-11-06T01:56:05;8.40;99.90
21167;DHT22;10741;52.272;9.580;2022-11-06T01:58:33;8.40;99.90
21167;DHT22;10741;52.272;9.580;2022-11-06T02:01:00;8.40;99.90
21167;DHT22;10741;52.272;9.580;2022-11-06T02:03:27;8.40;99.90
21167;DHT22;10741;52.272;9.580;2022-11-06T02:05:53;8.40;99.90
21167;DHT22;10741;52.272;9.580;2022-11-06T02:08:20;8.40;99.90
21167;DHT22;10741;52.272;9.580;2022-11-06T02:10:47;8.40;99.90
21167;DHT22;10741;52.272;9.580;2022-11-06T02:16:32;8.50;99.90
21167;DHT22;10741;52.272;9.580;2022-11-06T02:19:31;8.50;99.90
21167;DHT22;10741;52.272;9.580;2022-11-06T02:22:28;8.40;99.90
21167;DHT22;10741;52.272;9.580;2022-11-06T02:25:18;8.40;99.90
21167;DHT22;10741;52.272;9.580;2022-11-06T02:27:55;8.40;99.90
21167;DHT22;10741;52.272;9.580;2022-11-06T02:30:29;8.40;99.90
21167;DHT22;10741;52.272;9.580;2022-11-06T02:33:00;8.40;99.90
21167;DHT22;10741;52.272;9.580;2022-11-06T02:35:35;8.40;99.90
21167;DHT22;10741;52.272;9.580;2022-11-06T02:38:07;8.30;99.90
21167;DHT22;10741;52.272;9.580;2022-11-06T02:40:36;8.40;99.90
21167;DHT22;10741;52.272;9.580;2022-11-06T02:43:06;8.30;99.90
21167;DHT22;10741;52.272;9.580;2022-11-06T02:45:38;8.30;99.90
21167;DHT22;10741;52.272;9.580;2022-11-06T02:48:06;8.30;99.90
21167;DHT22;10741;52.272;9.580;2022-11-06T02:50:39;8.30;99.90
21167;DHT22;10741;52.272;9.580;2022-11-06T02:53:08;8.30;99.90
21167;DHT22;10741;52.272;9.580;2022-11-06T02:55:42;8.30;99.90
21167;DHT22;10741;52.272;9.580;2022-11-06T02:58:19;8.30;99.90
21167;DHT22;10741;52.272;9.580;2022-11-06T03:00:51;8.20;99.90
21167;DHT22;10741;52.272;9.580;2022-11-06T03:03:23;8.20;99.90
21167;DHT22;10741;52.272;9.580;2022-11-06T03:06:03;8.20;99.90
21167;DHT22;10741;52.272;9.580;2022-11-06T03:08:44;8.20;99.90
21167;DHT22;10741;52.272;9.580;2022-11-06T03:11:26;8.20;99.90
21167;DHT22;10741;52.272;9.580;2022-11-06T03:22:11;8.00;99.90
21167;DHT22;10741;52.272;9.580;2022-11-06T03:27:34;8.00;99.90
21167;DHT22;10741;52.272;9.580;2022-11-06T03:30:07;8.00;99.90
21167;DHT22;10741;52.272;9.580;2022-11-06T03:32:42;8.00;99.90
21167;DHT22;10741;52.272;9.580;2022-11-06T03:35:21;8.00;99.90
21167;DHT22;10741;52.272;9.580;2022-11-06T03:38:09;7.90;99.90
21167;DHT22;10741;52.272;9.580;2022-11-06T03:40:39;7.90;99.90
21167;DHT22;10741;52.272;9.580;2022-11-06T03:43:08;7.90;99.90
21167;DHT22;10741;52.272;9.580;2022-11-06T03:45:39;7.80;99.90
21167;DHT22;10741;52.272;9.580;2022-11-06T03:48:20;7.80;99.90
21167;DHT22;10741;52.272;9.580;2022-11-06T03:51:07;7.80;99.90
21167;DHT22;10741;52.272;9.580;2022-11-06T03:53:40;7.80;99.90
21167;DHT22;10741;52.272;9.580;2022-11-06T03:56:14;7.80;99.90
21167;DHT22;10741;52.272;9.580;2022-11-06T03:58:44;7.80;99.90
21167;DHT22;10741;52.272;9.580;2022-11-06T04:01:14;7.80;99.90
21167;DHT22;10741;52.272;9.580;2022-11-06T04:04:02;7.90;99.90
21167;DHT22;10741;52.272;9.580;2022-11-06T04:09:06;8.00;99.90
21167;DHT22;10741;52.272;9.580;2022-11-06T04:11:52;8.00;99.90
21167;DHT22;10741;52.272;9.580;2022-11-06T04:14:41;8.00;99.90
21167;DHT22;10741;52.272;9.580;2022-11-06T04:17:11;8.00;99.90
21167;DHT22;10741;52.272;9.580;2022-11-06T04:19:42;8.10;99.90
21167;DHT22;10741;52.272;9.580;2022-11-06T04:28:34;8.10;99.90
21167;DHT22;10741;52.272;9.580;2022-11-06T04:36:30;8.10;99.90
21167;DHT22;10741;52.272;9.580;2022-11-06T04:39:05;8.10;99.90
21167;DHT22;10741;52.272;9.580;2022-11-06T04:42:37;8.10;99.90
21167;DHT22;10741;52.272;9.580;2022-11-06T04:44:33;8.10;99.90
21167;DHT22;10741;52.272;9.580;2022-11-06T04:47:04;8.10;99.90
21167;DHT22;10741;52.272;9.580;2022-11-06T04:49:33;8.10;99.90
21167;DHT22;10741;52.272;9.580;2022-11-06T04:52:02;8.10;99.90
21167;DHT22;10741;52.272;9.580;2022-11-06T04:54:28;8.10;99.90
21167;DHT22;10741;52.272;9.580;2022-11-06T04:57:01;8.10;99.90
21167;DHT22;10741;52.272;9.580;2022-11-06T04:59:28;8.00;99.90
21167;DHT22;10741;52.272;9.580;2022-11-06T05:01:55;8.00;99.90
21167;DHT22;10741;52.272;9.580;2022-11-06T05:04:21;8.00;99.90
21167;DHT22;10741;52.272;9.580;2022-11-06T05:06:46;8.00;99.90
21167;DHT22;10741;52.272;9.580;2022-11-06T05:09:12;8.00;99.90
21167;DHT22;10741;52.272;9.580;2022-11-06T05:11:38;8.00;99.90
21167;DHT22;10741;52.272;9.580;2022-11-06T05:14:04;8.00;99.90
21167;DHT22;10741;52.272;9.580;2022-11-06T05:16:30;8.00;99.90
21167;DHT22;10741;52.272;9.580;2022-11-06T05:18:55;8.00;99.90
21167;DHT22;10741;52.272;9.580;2022-11-06T05:21:21;8.00;99.90
21167;DHT22;10741;52.272;9.580;2022-11-06T05:24:05;8.10;99.90
21167;DHT22;10741;52.272;9.580;2022-11-06T05:26:31;8.10;99.90
21167;DHT22;10741;52.272;9.580;2022-11-06T05:28:57;8.00;99.90
21167;DHT22;10741;52.272;9.580;2022-11-06T05:31:23;8.00;99.90
21167;DHT22;10741;52.272;9.580;2022-11-06T05:33:49;8.00;99.90
21167;DHT22;10741;52.272;9.580;2022-11-06T05:36:15;8.00;99.90
21167;DHT22;10741;52.272;9.580;2022-11-06T05:38:41;8.00;99.90
21167;DHT22;10741;52.272;9.580;2022-11-06T05:41:06;8.10;99.90
21167;DHT22;10741;52.272;9.580;2022-11-06T05:43:32;8.10;99.90
21167;DHT22;10741;52.272;9.580;2022-11-06T05:45:58;8.10;99.90
21167;DHT22;10741;52.272;9.580;2022-11-06T05:48:26;8.10;99.90
21167;DHT22;10741;52.272;9.580;2022-11-06T05:50:52;8.10;99.90
21167;DHT22;10741;52.272;9.580;2022-11-06T05:53:18;8.10;99.90
21167;DHT22;10741;52.272;9.580;2022-11-06T05:55:46;8.00;99.90
21167;DHT22;10741;52.272;9.580;2022-11-06T05:58:13;8.00;99.90
21167;DHT22;10741;52.272;9.580;2022-11-06T06:00:39;7.90;99.90
21167;DHT22;10741;52.272;9.580;2022-11-06T06:03:05;7.90;99.90
21167;DHT22;10741;52.272;9.580;2022-11-06T06:05:30;7.90;99.90
21167;DHT22;10741;52.272;9.580;2022-11-06T06:07:56;7.90;99.90
21167;DHT22;10741;52.272;9.580;2022-11-06T06:10:22;7.90;99.90
21167;DHT22;10741;52.272;9.580;2022-11-06T06:12:51;7.80;99.90
21167;DHT22;10741;52.272;9.580;2022-11-06T06:15:16;7.80;99.90
21167;DHT22;10741;52.272;9.580;2022-11-06T06:17:42;7.80;99.90
21167;DHT22;10741;52.272;9.580;2022-11-06T06:20:10;7.70;99.90
21167;DHT22;10741;52.272;9.580;2022-11-06T06:22:36;7.80;99.90
21167;DHT22;10741;52.272;9.580;2022-11-06T06:25:02;7.70;99.90
21167;DHT22;10741;52.272;9.580;2022-11-06T06:27:28;7.80;99.90
21167;DHT22;10741;52.272;9.580;2022-11-06T06:29:55;7.80;99.90
21167;DHT22;10741;52.272;9.580;2022-11-06T06:32:21;7.70;99.90
21167;DHT22;10741;52.272;9.580;2022-11-06T06:34:47;7.70;99.90
21167;DHT22;10741;52.272;9.580;2022-11-06T06:37:13;7.70;99.90
21167;DHT22;10741;52.272;9.580;2022-11-06T06:39:39;7.70;99.90
21167;DHT22;10741;52.272;9.580;2022-11-06T06:42:04;7.70;99.90
21167;DHT22;10741;52.272;9.580;2022-11-06T06:44:30;7.80;99.90
21167;DHT22;10741;52.272;9.580;2022-11-06T06:46:56;7.80;99.90
21167;DHT22;10741;52.272;9.580;2022-11-06T06:49:22;7.80;99.90
21167;DHT22;10741;52.272;9.580;2022-11-06T06:51:48;7.80;99.90
21167;DHT22;10741;52.272;9.580;2022-11-06T06:54:14;7.80;99.90
21167;DHT22;10741;52.272;9.580;2022-11-06T06:56:40;7.80;99.90
21167;DHT22;10741;52.272;9.580;2022-11-06T06:59:06;7.80;99.90
21167;DHT22;10741;52.272;9.580;2022-11-06T07:01:32;7.80;99.90
21167;DHT22;10741;52.272;9.580;2022-11-06T07:03:58;7.80;99.90
21167;DHT22;10741;52.272;9.580;2022-11-06T07:06:24;7.90;99.90
21167;DHT22;10741;52.272;9.580;2022-11-06T07:08:53;7.90;99.90
21167;DHT22;10741;52.272;9.580;2022-11-06T07:11:20;8.00;99.90
21167;DHT22;10741;52.272;9.580;2022-11-06T07:13:46;8.10;99.90
21167;DHT22;10741;52.272;9.580;2022-11-06T07:16:11;8.20;99.90
21167;DHT22;10741;52.272;9.580;2022-11-06T07:18:38;8.20;99.90
21167;DHT22;10741;52.272;9.580;2022-11-06T07:21:05;8.20;99.90
21167;DHT22;10741;52.272;9.580;2022-11-06T07:23:35;8.20;99.90
21167;DHT22;10741;52.272;9.580;2022-11-06T07:26:02;8.20;99.90
21167;DHT22;10741;52.272;9.580;2022-11-06T07:28:28;8.30;99.90
21167;DHT22;10741;52.272;9.580;2022-11-06T07:30:58;8.50;99.90
21167;DHT22;10741;52.272;9.580;2022-11-06T07:33:24;8.90;99.90
21167;DHT22;10741;52.272;9.580;2022-11-06T07:35:50;9.20;99.90
21167;DHT22;10741;52.272;9.580;2022-11-06T07:38:15;9.50;99.90
21167;DHT22;10741;52.272;9.580;2022-11-06T07:40:41;9.70;99.90
21167;DHT22;10741;52.272;9.580;2022-11-06T07:43:08;9.90;99.90
21167;DHT22;10741;52.272;9.580;2022-11-06T07:45:35;10.20;99.90
21167;DHT22;10741;52.272;9.580;2022-11-06T07:48:01;10.30;99.90
21167;DHT22;10741;52.272;9.580;2022-11-06T07:50:27;10.50;99.90
21167;DHT22;10741;52.272;9.580;2022-11-06T07:52:53;10.50;99.90
21167;DHT22;10741;52.272;9.580;2022-11-06T07:55:19;10.50;99.90
21167;DHT22;10741;52.272;9.580;2022-11-06T07:57:45;10.50;99.90
21167;DHT22;10741;52.272;9.580;2022-11-06T08:00:11;10.90;99.90
21167;DHT22;10741;52.272;9.580;2022-11-06T08:02:37;11.30;99.90
21167;DHT22;10741;52.272;9.580;2022-11-06T08:05:03;11.30;99.90
21167;DHT22;10741;52.272;9.580;2022-11-06T08:07:29;11.60;99.90
21167;DHT22;10741;52.272;9.580;2022-11-06T08:09:54;12.30;99.90
21167;DHT22;10741;52.272;9.580;2022-11-06T08:12:20;12.70;99.90
21167;DHT22;10741;52.272;9.580;2022-11-06T08:14:46;13.10;99.90
21167;DHT22;10741;52.272;9.580;2022-11-06T08:17:12;13.70;99.90
21167;DHT22;10741;52.272;9.580;2022-11-06T08:19:38;13.80;99.90
21167;DHT22;10741;52.272;9.580;2022-11-06T08:22:04;14.20;99.90
21167;DHT22;10741;52.272;9.580;2022-11-06T08:24:30;14.40;99.90
21167;DHT22;10741;52.272;9.580;2022-11-06T08:26:56;14.70;99.90
21167;DHT22;10741;52.272;9.580;2022-11-06T08:29:23;15.30;99.90
21167;DHT22;10741;52.272;9.580;2022-11-06T08:31:49;14.80;99.90
21167;DHT22;10741;52.272;9.580;2022-11-06T08:34:36;14.60;99.90
21167;DHT22;10741;52.272;9.580;2022-11-06T08:37:02;13.80;99.90
21167;DHT22;10741;52.272;9.580;2022-11-06T08:39:28;13.40;99.90
21167;DHT22;10741;52.272;9.580;2022-11-06T08:41:54;12.70;99.90
21167;DHT22;10741;52.272;9.580;2022-11-06T08:44:22;12.70;99.90
21167;DHT22;10741;52.272;9.580;2022-11-06T08:46:48;12.80;99.90
21167;DHT22;10741;52.272;9.580;2022-11-06T08:49:14;13.10;99.90
21167;DHT22;10741;52.272;9.580;2022-11-06T08:51:39;12.80;99.90
21167;DHT22;10741;52.272;9.580;2022-11-06T08:54:05;12.40;99.90
21167;DHT22;10741;52.272;9.580;2022-11-06T08:56:31;12.00;99.90
21167;DHT22;10741;52.272;9.580;2022-11-06T08:58:57;11.40;99.90
21167;DHT22;10741;52.272;9.580;2022-11-06T09:01:22;11.40;99.90
21167;DHT22;10741;52.272;9.580;2022-11-06T09:03:48;12.10;99.90
21167;DHT22;10741;52.272;9.580;2022-11-06T09:06:14;13.00;99.90
21167;DHT22;10741;52.272;9.580;2022-11-06T09:08:40;13.60;99.90
21167;DHT22;10741;52.272;9.580;2022-11-06T09:11:06;13.90;99.90
21167;DHT22;10741;52.272;9.580;2022-11-06T09:13:32;14.30;99.90
21167;DHT22;10741;52.272;9.580;2022-11-06T09:15:59;14.20;99.90
21167;DHT22;10741;52.272;9.580;2022-11-06T09:18:24;14.50;99.90
21167;DHT22;10741;52.272;9.580;2022-11-06T09:20:56;15.00;99.90
21167;DHT22;10741;52.272;9.580;2022-11-06T09:23:22;15.10;99.90
21167;DHT22;10741;52.272;9.580;2022-11-06T09:25:48;15.10;99.90
21167;DHT22;10741;52.272;9.580;2022-11-06T09:28:15;15.30;99.90
21167;DHT22;10741;52.272;9.580;2022-11-06T09:30:41;15.30;99.90
21167;DHT22;10741;52.272;9.580;2022-11-06T09:33:07;14.90;99.90
21167;DHT22;10741;52.272;9.580;2022-11-06T09:35:33;15.00;99.90
21167;DHT22;10741;52.272;9.580;2022-11-06T09:38:01;15.10;99.90
21167;DHT22;10741;52.272;9.580;2022-11-06T09:46:30;13.90;99.90
21167;DHT22;10741;52.272;9.580;2022-11-06T09:49:34;14.00;99.90
21167;DHT22;10741;52.272;9.580;2022-11-06T09:54:34;13.70;99.90
21167;DHT22;10741;52.272;9.580;2022-11-06T09:57:05;13.20;99.90
21167;DHT22;10741;52.272;9.580;2022-11-06T09:59:35;12.90;99.90
21167;DHT22;10741;52.272;9.580;2022-11-06T10:04:46;12.80;99.90
21167;DHT22;10741;52.272;9.580;2022-11-06T10:07:35;12.80;99.90
21167;DHT22;10741;52.272;9.580;2022-11-06T10:10:04;13.00;99.90
21167;DHT22;10741;52.272;9.580;2022-11-06T10:18:57;13.90;99.90
21167;DHT22;10741;52.272;9.580;2022-11-06T10:26:58;13.80;99.90
21167;DHT22;10741;52.272;9.580;2022-11-06T10:32:48;13.40;99.90
21167;DHT22;10741;52.272;9.580;2022-11-06T10:35:24;13.20;99.90
21167;DHT22;10741;52.272;9.580;2022-11-06T10:38:21;13.30;99.90
21167;DHT22;10741;52.272;9.580;2022-11-06T10:40:48;13.40;99.90
21167;DHT22;10741;52.272;9.580;2022-11-06T10:45:51;13.30;99.90
21167;DHT22;10741;52.272;9.580;2022-11-06T10:48:21;13.30;99.90
21167;DHT22;10741;52.272;9.580;2022-11-06T10:56:19;13.40;99.90
21167;DHT22;10741;52.272;9.580;2022-11-06T10:58:51;13.50;99.90
21167;DHT22;10741;52.272;9.580;2022-11-06T11:01:17;13.50;99.90
21167;DHT22;10741;52.272;9.580;2022-11-06T11:03:44;13.60;99.90
21167;DHT22;10741;52.272;9.580;2022-11-06T11:06:11;13.70;99.90
21167;DHT22;10741;52.272;9.580;2022-11-06T11:08:48;14.00;99.90
21167;DHT22;10741;52.272;9.580;2022-11-06T11:11:22;14.10;99.90
21167;DHT22;10741;52.272;9.580;2022-11-06T11:16:27;14.40;99.90
21167;DHT22;10741;52.272;9.580;2022-11-06T11:18:53;14.40;99.90
21167;DHT22;10741;52.272;9.580;2022-11-06T11:21:26;14.20;99.90
21167;DHT22;10741;52.272;9.580;2022-11-06T11:24:08;13.70;99.90
21167;DHT22;10741;52.272;9.580;2022-11-06T11:27:01;13.60;99.90
21167;DHT22;10741;52.272;9.580;2022-11-06T11:29:43;13.80;99.90
21167;DHT22;10741;52.272;9.580;2022-11-06T11:32:13;13.80;99.90
21167;DHT22;10741;52.272;9.580;2022-11-06T11:34:45;13.90;99.90
21167;DHT22;10741;52.272;9.580;2022-11-06T11:37:27;13.90;99.90
21167;DHT22;10741;52.272;9.580;2022-11-06T11:39:54;13.90;99.90
21167;DHT22;10741;52.272;9.580;2022-11-06T11:42:29;13.90;99.90
21167;DHT22;10741;52.272;9.580;2022-11-06T11:47:36;14.30;99.90
21167;DHT22;10741;52.272;9.580;2022-11-06T11:53:13;14.50;99.90
21167;DHT22;10741;52.272;9.580;2022-11-06T11:55:43;14.20;99.90
21167;DHT22;10741;52.272;9.580;2022-11-06T11:58:21;14.00;99.90
21167;DHT22;10741;52.272;9.580;2022-11-06T12:01:00;14.00;99.90
21167;DHT22;10741;52.272;9.580;2022-11-06T12:03:33;13.90;99.90
21167;DHT22;10741;52.272;9.580;2022-11-06T12:06:17;14.00;99.90
21167;DHT22;10741;52.272;9.580;2022-11-06T12:09:01;14.40;99.90
21167;DHT22;10741;52.272;9.580;2022-11-06T12:11:29;14.50;99.90
21167;DHT22;10741;52.272;9.580;2022-11-06T12:16:59;13.80;99.90
21167;DHT22;10741;52.272;9.580;2022-11-06T12:19:28;13.80;99.90
21167;DHT22;10741;52.272;9.580;2022-11-06T12:21:58;14.00;99.90
21167;DHT22;10741;52.272;9.580;2022-11-06T12:27:16;16.30;99.90
21167;DHT22;10741;52.272;9.580;2022-11-06T12:30:13;17.80;99.90
21167;DHT22;10741;52.272;9.580;2022-11-06T12:33:00;18.20;99.00
21167;DHT22;10741;52.272;9.580;2022-11-06T12:35:49;18.50;98.70
21167;DHT22;10741;52.272;9.580;2022-11-06T12:38:49;17.90;98.10
21167;DHT22;10741;52.272;9.580;2022-11-06T12:43:49;15.30;99.90
21167;DHT22;10741;52.272;9.580;2022-11-06T12:49:18;13.70;99.90
21167;DHT22;10741;52.272;9.580;2022-11-06T12:54:39;13.10;99.90
21167;DHT22;10741;52.272;9.580;2022-11-06T13:00:20;13.30;99.90
21167;DHT22;10741;52.272;9.580;2022-11-06T13:08:59;13.50;99.90
21167;DHT22;10741;52.272;9.580;2022-11-06T13:14:58;13.40;99.90
21167;DHT22;10741;52.272;9.580;2022-11-06T13:17:30;13.30;99.90
21167;DHT22;10741;52.272;9.580;2022-11-06T13:22:36;13.20;99.90
21167;DHT22;10741;52.272;9.580;2022-11-06T13:25:17;13.10;99.90
21167;DHT22;10741;52.272;9.580;2022-11-06T13:30:49;12.90;99.90
21167;DHT22;10741;52.272;9.580;2022-11-06T13:33:25;12.70;99.90
21167;DHT22;10741;52.272;9.580;2022-11-06T13:35:53;12.60;99.90
21167;DHT22;10741;52.272;9.580;2022-11-06T13:38:27;12.50;99.90
21167;DHT22;10741;52.272;9.580;2022-11-06T13:40:59;12.40;99.90
21167;DHT22;10741;52.272;9.580;2022-11-06T13:43:40;12.40;99.90
21167;DHT22;10741;52.272;9.580;2022-11-06T13:49:05;12.10;99.90
21167;DHT22;10741;52.272;9.580;2022-11-06T14:06:05;12.10;99.90
21167;DHT22;10741;52.272;9.580;2022-11-06T14:09:08;12.20;99.90
21167;DHT22;10741;52.272;9.580;2022-11-06T14:14:04;12.10;99.90
21167;DHT22;10741;52.272;9.580;2022-11-06T14:16:35;12.10;99.90
21167;DHT22;10741;52.272;9.580;2022-11-06T14:19:24;12.10;99.90
21167;DHT22;10741;52.272;9.580;2022-11-06T14:22:15;12.10;99.90
21167;DHT22;10741;52.272;9.580;2022-11-06T14:24:42;12.00;99.90
21167;DHT22;10741;52.272;9.580;2022-11-06T14:30:03;12.00;99.90
21167;DHT22;10741;52.272;9.580;2022-11-06T14:34:56;12.00;99.90
21167;DHT22;10741;52.272;9.580;2022-11-06T14:44:50;11.90;99.90
21167;DHT22;10741;52.272;9.580;2022-11-06T14:50:34;11.80;99.90
21167;DHT22;10741;52.272;9.580;2022-11-06T14:53:24;11.80;99.90
21167;DHT22;10741;52.272;9.580;2022-11-06T14:56:04;11.70;99.90
21167;DHT22;10741;52.272;9.580;2022-11-06T14:58:31;11.60;99.90
21167;DHT22;10741;52.272;9.580;2022-11-06T15:01:02;11.60;99.90
21167;DHT22;10741;52.272;9.580;2022-11-06T15:16:27;11.50;99.90
21167;DHT22;10741;52.272;9.580;2022-11-06T15:18:53;11.40;99.90
21167;DHT22;10741;52.272;9.580;2022-11-06T15:21:28;11.50;99.90
21167;DHT22;10741;52.272;9.580;2022-11-06T15:24:03;11.40;99.90
21167;DHT22;10741;52.272;9.580;2022-11-06T15:29:23;11.30;99.90
21167;DHT22;10741;52.272;9.580;2022-11-06T15:31:54;11.30;99.90
21167;DHT22;10741;52.272;9.580;2022-11-06T15:34:42;11.20;99.90
21167;DHT22;10741;52.272;9.580;2022-11-06T15:37:16;11.20;99.90
21167;DHT22;10741;52.272;9.580;2022-11-06T15:42:15;11.00;99.90
21167;DHT22;10741;52.272;9.580;2022-11-06T15:44:43;11.00;99.90
21167;DHT22;10741;52.272;9.580;2022-11-06T15:47:24;10.90;99.90
21167;DHT22;10741;52.272;9.580;2022-11-06T15:50:15;10.80;99.90
21167;DHT22;10741;52.272;9.580;2022-11-06T15:52:43;10.70;99.90
21167;DHT22;10741;52.272;9.580;2022-11-06T15:55:27;10.60;99.90
21167;DHT22;10741;52.272;9.580;2022-11-06T15:57:54;10.70;99.90
21167;DHT22;10741;52.272;9.580;2022-11-06T16:00:29;10.70;99.90
21167;DHT22;10741;52.272;9.580;2022-11-06T16:02:59;10.60;99.90
21167;DHT22;10741;52.272;9.580;2022-11-06T16:05:27;10.50;99.90
21167;DHT22;10741;52.272;9.580;2022-11-06T16:07:56;10.50;99.90
21167;DHT22;10741;52.272;9.580;2022-11-06T16:10:22;10.50;99.90
21167;DHT22;10741;52.272;9.580;2022-11-06T16:12:49;10.60;99.90
21167;DHT22;10741;52.272;9.580;2022-11-06T16:21:19;10.70;99.90
21167;DHT22;10741;52.272;9.580;2022-11-06T16:28:59;10.70;99.90
21167;DHT22;10741;52.272;9.580;2022-11-06T16:31:27;10.70;99.90
21167;DHT22;10741;52.272;9.580;2022-11-06T16:36:19;10.70;99.90
21167;DHT22;10741;52.272;9.580;2022-11-06T16:38:45;10.70;99.90
21167;DHT22;10741;52.272;9.580;2022-11-06T16:41:13;10.70;99.90
21167;DHT22;10741;52.272;9.580;2022-11-06T16:44:18;10.70;99.90
21167;DHT22;10741;52.272;9.580;2022-11-06T16:49:48;10.80;99.90
21167;DHT22;10741;52.272;9.580;2022-11-06T16:52:32;10.90;99.90
21167;DHT22;10741;52.272;9.580;2022-11-06T17:02:57;10.90;99.90
21167;DHT22;10741;52.272;9.580;2022-11-06T17:05:33;10.90;99.90
21167;DHT22;10741;52.272;9.580;2022-11-06T17:08:31;10.90;99.90
21167;DHT22;10741;52.272;9.580;2022-11-06T17:11:16;10.90;99.90
21167;DHT22;10741;52.272;9.580;2022-11-06T17:13:46;11.10;99.90
21167;DHT22;10741;52.272;9.580;2022-11-06T17:16:48;11.10;99.90
21167;DHT22;10741;52.272;9.580;2022-11-06T17:19:06;11.10;99.90
21167;DHT22;10741;52.272;9.580;2022-11-06T17:21:32;11.00;99.90
21167;DHT22;10741;52.272;9.580;2022-11-06T17:23:57;11.00;99.90
21167;DHT22;10741;52.272;9.580;2022-11-06T17:26:28;10.90;99.90
21167;DHT22;10741;52.272;9.580;2022-11-06T17:28:55;11.00;99.90
21167;DHT22;10741;52.272;9.580;2022-11-06T17:31:22;11.00;99.90
21167;DHT22;10741;52.272;9.580;2022-11-06T17:33:51;11.00;99.90
21167;DHT22;10741;52.272;9.580;2022-11-06T17:36:20;11.00;99.90
21167;DHT22;10741;52.272;9.580;2022-11-06T17:38:47;11.00;99.90
21167;DHT22;10741;52.272;9.580;2022-11-06T17:41:16;10.90;99.90
21167;DHT22;10741;52.272;9.580;2022-11-06T17:44:09;10.90;99.90
21167;DHT22;10741;52.272;9.580;2022-11-06T17:46:39;10.90;99.90
21167;DHT22;10741;52.272;9.580;2022-11-06T17:49:06;11.00;99.90
21167;DHT22;10741;52.272;9.580;2022-11-06T17:51:32;11.00;99.90
21167;DHT22;10741;52.272;9.580;2022-11-06T17:54:17;11.00;99.90
21167;DHT22;10741;52.272;9.580;2022-11-06T17:56:44;11.00;99.90
21167;DHT22;10741;52.272;9.580;2022-11-06T17:59:10;11.00;99.90
21167;DHT22;10741;52.272;9.580;2022-11-06T18:01:36;11.00;99.90
21167;DHT22;10741;52.272;9.580;2022-11-06T18:04:03;11.00;99.90
21167;DHT22;10741;52.272;9.580;2022-11-06T18:06:28;11.00;99.90
21167;DHT22;10741;52.272;9.580;2022-11-06T18:08:58;11.00;99.90
21167;DHT22;10741;52.272;9.580;2022-11-06T18:11:25;10.90;99.90
21167;DHT22;10741;52.272;9.580;2022-11-06T18:13:50;10.90;99.90
21167;DHT22;10741;52.272;9.580;2022-11-06T18:16:22;10.90;99.90
21167;DHT22;10741;52.272;9.580;2022-11-06T18:18:49;10.90;99.90
21167;DHT22;10741;52.272;9.580;2022-11-06T18:21:15;10.90;99.90
21167;DHT22;10741;52.272;9.580;2022-11-06T18:23:41;10.90;99.90
21167;DHT22;10741;52.272;9.580;2022-11-06T18:26:06;10.90;99.90
21167;DHT22;10741;52.272;9.580;2022-11-06T18:28:33;10.90;99.90
21167;DHT22;10741;52.272;9.580;2022-11-06T18:30:59;10.90;99.90
21167;DHT22;10741;52.272;9.580;2022-11-06T18:33:26;10.80;99.90
21167;DHT22;10741;52.272;9.580;2022-11-06T18:35:52;10.90;99.90
21167;DHT22;10741;52.272;9.580;2022-11-06T18:38:17;10.90;99.90
21167;DHT22;10741;52.272;9.580;2022-11-06T18:40:43;10.90;99.90
21167;DHT22;10741;52.272;9.580;2022-11-06T18:43:09;10.80;99.90
21167;DHT22;10741;52.272;9.580;2022-11-06T18:45:39;10.80;99.90
21167;DHT22;10741;52.272;9.580;2022-11-06T18:48:05;10.80;99.90
21167;DHT22;10741;52.272;9.580;2022-11-06T18:50:35;10.80;99.90
21167;DHT22;10741;52.272;9.580;2022-11-06T18:53:02;10.80;99.90
21167;DHT22;10741;52.272;9.580;2022-11-06T18:55:28;10.90;99.90
21167;DHT22;10741;52.272;9.580;2022-11-06T18:57:54;10.90;99.90
21167;DHT22;10741;52.272;9.580;2022-11-06T19:00:21;10.90;99.90
21167;DHT22;10741;52.272;9.580;2022-11-06T19:02:47;10.90;99.90